sensor_id;sensor_type;location;lat;lon;timestamp;pressure;altitude;pressure_sealevel;temperature;humidity
78485;BME280;67773;50.806;8.776;2024-02-23T00:00:03;97020.94;;;7.49;100.00
78485;BME280;67773;50.806;8.776;2024-02-23T00:02:31;97037.00;;;7.57;100.00
78485;BME280;67773;50.806;8.776;2024-02-23T00:04:56;97044.97;;;7.46;100.00
78485;BME280;67773;50.806;8.776;2024-02-23T00:07:22;97045.94;;;7.45;100.00
78485;BME280;67773;50.806;8.776;2024-02-23T00:09:47;97054.22;;;7.40;100.00
78485;BME280;67773;50.806;8.776;2024-02-23T00:12:13;97069.41;;;7.48;100.00
78485;BME280;67773;50.806;8.776;2024-02-23T00:14:39;97092.94;;;7.29;100.00
78485;BME280;67773;50.806;8.776;2024-02-23T00:17:04;97102.66;;;7.17;100.00
78485;BME280;67773;50.806;8.776;2024-02-23T00:19:33;97097.28;;;7.07;100.00
78485;BME280;67773;50.806;8.776;2024-02-23T00:21:58;97098.47;;;6.92;100.00
78485;BME280;67773;50.806;8.776;2024-02-23T00:24:27;97106.97;;;7.07;100.00
78485;BME280;67773;50.806;8.776;2024-02-23T00:26:52;97119.69;;;7.02;100.00
78485;BME280;67773;50.806;8.776;2024-02-23T00:29:17;97130.13;;;7.03;100.00
78485;BME280;67773;50.806;8.776;2024-02-23T00:31:43;97129.28;;;7.03;100.00
78485;BME280;67773;50.806;8.776;2024-02-23T00:34:12;97140.56;;;7.05;100.00
78485;BME280;67773;50.806;8.776;2024-02-23T00:36:39;97167.28;;;7.00;100.00
78485;BME280;67773;50.806;8.776;2024-02-23T00:39:06;97168.28;;;6.64;100.00
78485;BME280;67773;50.806;8.776;2024-02-23T00:41:33;97179.59;;;6.18;100.00
78485;BME280;67773;50.806;8.776;2024-02-23T00:43:58;97189.53;;;6.02;100.00
78485;BME280;67773;50.806;8.776;2024-02-23T00:46:23;97188.13;;;5.85;100.00
78485;BME280;67773;50.806;8.776;2024-02-23T00:48:48;97196.53;;;5.90;100.00
78485;BME280;67773;50.806;8.776;2024-02-23T00:51:14;97199.59;;;5.84;100.00
78485;BME280;67773;50.806;8.776;2024-02-23T00:53:39;97192.97;;;5.91;100.00
78485;BME280;67773;50.806;8.776;2024-02-23T00:56:05;97202.16;;;6.10;100.00
78485;BME280;67773;50.806;8.776;2024-02-23T00:58:30;97208.09;;;6.00;100.00
78485;BME280;67773;50.806;8.776;2024-02-23T01:00:56;97216.00;;;6.00;100.00
78485;BME280;67773;50.806;8.776;2024-02-23T01:03:21;97208.56;;;5.94;100.00
78485;BME280;67773;50.806;8.776;2024-02-23T01:05:47;97212.94;;;6.06;100.00
78485;BME280;67773;50.806;8.776;2024-02-23T01:08:12;97226.28;;;6.03;100.00
78485;BME280;67773;50.806;8.776;2024-02-23T01:10:37;97233.28;;;6.04;100.00
78485;BME280;67773;50.806;8.776;2024-02-23T01:13:03;97240.78;;;6.22;100.00
78485;BME280;67773;50.806;8.776;2024-02-23T01:15:30;97239.22;;;6.19;100.00
78485;BME280;67773;50.806;8.776;2024-02-23T01:17:55;97244.38;;;6.21;100.00
78485;BME280;67773;50.806;8.776;2024-02-23T01:20:21;97243.31;;;6.23;100.00
78485;BME280;67773;50.806;8.776;2024-02-23T01:22:46;97240.28;;;6.17;100.00
78485;BME280;67773;50.806;8.776;2024-02-23T01:25:12;97252.94;;;6.12;100.00
78485;BME280;67773;50.806;8.776;2024-02-23T01:27:37;97268.84;;;6.10;100.00
78485;BME280;67773;50.806;8.776;2024-02-23T01:30:03;97265.25;;;6.11;100.00
78485;BME280;67773;50.806;8.776;2024-02-23T01:32:29;97290.09;;;6.20;100.00
78485;BME280;67773;50.806;8.776;2024-02-23T01:34:54;97314.59;;;5.96;100.00
78485;BME280;67773;50.806;8.776;2024-02-23T01:37:19;97336.34;;;4.95;100.00
78485;BME280;67773;50.806;8.776;2024-02-23T01:39:45;97328.16;;;4.60;100.00
78485;BME280;67773;50.806;8.776;2024-02-23T01:42:10;97333.31;;;4.47;100.00
78485;BME280;67773;50.806;8.776;2024-02-23T01:44:35;97339.56;;;4.32;100.00
78485;BME280;67773;50.806;8.776;2024-02-23T01:47:01;97341.03;;;4.36;100.00
78485;BME280;67773;50.806;8.776;2024-02-23T01:49:27;97347.34;;;4.33;100.00
78485;BME280;67773;50.806;8.776;2024-02-23T01:51:57;97334.31;;;4.32;100.00
78485;BME280;67773;50.806;8.776;2024-02-23T01:54:22;97342.44;;;4.42;100.00
78485;BME280;67773;50.806;8.776;2024-02-23T01:56:48;97339.81;;;4.42;100.00
78485;BME280;67773;50.806;8.776;2024-02-23T01:59:14;97346.97;;;4.40;100.00
78485;BME280;67773;50.806;8.776;2024-02-23T02:01:43;97353.50;;;4.47;100.00
78485;BME280;67773;50.806;8.776;2024-02-23T02:04:08;97348.06;;;4.50;100.00
78485;BME280;67773;50.806;8.776;2024-02-23T02:06:33;97355.81;;;4.66;100.00
78485;BME280;67773;50.806;8.776;2024-02-23T02:08:59;97360.06;;;4.54;100.00
78485;BME280;67773;50.806;8.776;2024-02-23T02:11:24;97363.19;;;4.73;100.00
78485;BME280;67773;50.806;8.776;2024-02-23T02:13:49;97370.44;;;4.70;100.00
78485;BME280;67773;50.806;8.776;2024-02-23T02:16:15;97353.38;;;4.62;100.00
78485;BME280;67773;50.806;8.776;2024-02-23T02:18:40;97364.56;;;4.52;100.00
78485;BME280;67773;50.806;8.776;2024-02-23T02:21:05;97373.28;;;4.52;100.00
78485;BME280;67773;50.806;8.776;2024-02-23T02:23:31;97368.41;;;4.46;100.00
78485;BME280;67773;50.806;8.776;2024-02-23T02:25:57;97369.41;;;4.58;100.00
78485;BME280;67773;50.806;8.776;2024-02-23T02:28:24;97367.88;;;4.41;100.00
78485;BME280;67773;50.806;8.776;2024-02-23T02:30:51;97381.38;;;4.35;100.00
78485;BME280;67773;50.806;8.776;2024-02-23T02:33:16;97378.66;;;4.37;100.00
78485;BME280;67773;50.806;8.776;2024-02-23T02:35:42;97384.31;;;4.30;100.00
78485;BME280;67773;50.806;8.776;2024-02-23T02:38:07;97381.41;;;4.21;100.00
78485;BME280;67773;50.806;8.776;2024-02-23T02:40:33;97394.41;;;4.37;100.00
78485;BME280;67773;50.806;8.776;2024-02-23T02:42:58;97407.75;;;4.19;100.00
78485;BME280;67773;50.806;8.776;2024-02-23T02:45:23;97409.31;;;4.36;100.00
78485;BME280;67773;50.806;8.776;2024-02-23T02:47:49;97425.59;;;4.28;100.00
78485;BME280;67773;50.806;8.776;2024-02-23T02:50:14;97417.69;;;4.28;100.00
78485;BME280;67773;50.806;8.776;2024-02-23T02:52:39;97419.56;;;4.12;100.00
78485;BME280;67773;50.806;8.776;2024-02-23T02:55:05;97416.66;;;4.02;100.00
78485;BME280;67773;50.806;8.776;2024-02-23T02:57:30;97420.81;;;4.07;100.00
78485;BME280;67773;50.806;8.776;2024-02-23T02:59:56;97425.75;;;4.11;100.00
78485;BME280;67773;50.806;8.776;2024-02-23T03:02:21;97419.09;;;4.20;100.00
78485;BME280;67773;50.806;8.776;2024-02-23T03:04:47;97422.19;;;4.12;100.00
78485;BME280;67773;50.806;8.776;2024-02-23T03:07:13;97421.91;;;4.02;100.00
78485;BME280;67773;50.806;8.776;2024-02-23T03:09:38;97423.59;;;4.03;100.00
78485;BME280;67773;50.806;8.776;2024-02-23T03:12:04;97418.44;;;4.02;100.00
78485;BME280;67773;50.806;8.776;2024-02-23T03:14:29;97420.69;;;4.08;100.00
78485;BME280;67773;50.806;8.776;2024-02-23T03:16:54;97428.94;;;4.02;100.00
78485;BME280;67773;50.806;8.776;2024-02-23T03:19:20;97434.78;;;4.07;100.00
78485;BME280;67773;50.806;8.776;2024-02-23T03:21:47;97440.03;;;4.07;100.00
78485;BME280;67773;50.806;8.776;2024-02-23T03:24:13;97445.25;;;4.07;100.00
78485;BME280;67773;50.806;8.776;2024-02-23T03:26:38;97451.06;;;4.12;100.00
78485;BME280;67773;50.806;8.776;2024-02-23T03:29:03;97455.38;;;4.13;100.00
78485;BME280;67773;50.806;8.776;2024-02-23T03:31:28;97461.38;;;4.01;100.00
78485;BME280;67773;50.806;8.776;2024-02-23T03:33:54;97455.47;;;3.97;100.00
78485;BME280;67773;50.806;8.776;2024-02-23T03:36:19;97458.16;;;3.96;100.00
78485;BME280;67773;50.806;8.776;2024-02-23T03:38:44;97469.97;;;3.89;100.00
78485;BME280;67773;50.806;8.776;2024-02-23T03:41:10;97462.22;;;3.87;100.00
78485;BME280;67773;50.806;8.776;2024-02-23T03:43:35;97471.47;;;3.93;100.00
78485;BME280;67773;50.806;8.776;2024-02-23T03:46:02;97472.00;;;3.84;100.00
78485;BME280;67773;50.806;8.776;2024-02-23T03:48:28;97475.69;;;3.81;100.00
78485;BME280;67773;50.806;8.776;2024-02-23T03:50:53;97470.72;;;3.76;100.00
78485;BME280;67773;50.806;8.776;2024-02-23T03:53:19;97473.88;;;3.67;100.00
78485;BME280;67773;50.806;8.776;2024-02-23T03:55:44;97477.59;;;3.63;100.00
78485;BME280;67773;50.806;8.776;2024-02-23T03:58:10;97467.69;;;3.68;100.00
78485;BME280;67773;50.806;8.776;2024-02-23T04:00:35;97476.84;;;3.61;100.00
78485;BME280;67773;50.806;8.776;2024-02-23T04:03:00;97482.38;;;3.57;100.00
78485;BME280;67773;50.806;8.776;2024-02-23T04:05:26;97481.88;;;3.50;100.00
78485;BME280;67773;50.806;8.776;2024-02-23T04:07:51;97481.53;;;3.56;100.00
78485;BME280;67773;50.806;8.776;2024-02-23T04:10:16;97487.75;;;3.54;100.00
78485;BME280;67773;50.806;8.776;2024-02-23T04:12:46;97490.31;;;3.55;100.00
78485;BME280;67773;50.806;8.776;2024-02-23T04:15:11;97490.88;;;3.60;100.00
78485;BME280;67773;50.806;8.776;2024-02-23T04:17:38;97485.13;;;3.54;100.00
78485;BME280;67773;50.806;8.776;2024-02-23T04:20:07;97492.34;;;3.50;100.00
78485;BME280;67773;50.806;8.776;2024-02-23T04:22:35;97503.47;;;3.39;100.00
78485;BME280;67773;50.806;8.776;2024-02-23T04:25:01;97502.09;;;3.48;100.00
78485;BME280;67773;50.806;8.776;2024-02-23T04:27:26;97499.66;;;3.45;100.00
78485;BME280;67773;50.806;8.776;2024-02-23T04:29:51;97499.47;;;3.48;100.00
78485;BME280;67773;50.806;8.776;2024-02-23T04:32:16;97498.72;;;3.46;100.00
78485;BME280;67773;50.806;8.776;2024-02-23T04:34:42;97503.69;;;3.51;100.00
78485;BME280;67773;50.806;8.776;2024-02-23T04:37:07;97501.56;;;3.57;100.00
78485;BME280;67773;50.806;8.776;2024-02-23T04:39:33;97497.16;;;3.58;100.00
78485;BME280;67773;50.806;8.776;2024-02-23T04:41:58;97498.53;;;3.49;100.00
78485;BME280;67773;50.806;8.776;2024-02-23T04:44:23;97504.91;;;3.45;100.00
78485;BME280;67773;50.806;8.776;2024-02-23T04:46:49;97499.78;;;3.58;100.00
78485;BME280;67773;50.806;8.776;2024-02-23T04:49:14;97502.31;;;3.59;100.00
78485;BME280;67773;50.806;8.776;2024-02-23T04:51:39;97508.91;;;3.66;100.00
78485;BME280;67773;50.806;8.776;2024-02-23T04:54:05;97508.53;;;3.72;100.00
78485;BME280;67773;50.806;8.776;2024-02-23T04:56:30;97511.59;;;3.95;100.00
78485;BME280;67773;50.806;8.776;2024-02-23T04:58:56;97509.91;;;3.94;100.00
78485;BME280;67773;50.806;8.776;2024-02-23T05:01:21;97507.47;;;3.91;100.00
78485;BME280;67773;50.806;8.776;2024-02-23T05:03:46;97497.16;;;3.88;100.00
78485;BME280;67773;50.806;8.776;2024-02-23T05:06:12;97506.72;;;3.89;100.00
78485;BME280;67773;50.806;8.776;2024-02-23T05:08:38;97491.16;;;3.86;100.00
78485;BME280;67773;50.806;8.776;2024-02-23T05:11:03;97494.47;;;3.73;100.00
78485;BME280;67773;50.806;8.776;2024-02-23T05:13:29;97509.75;;;3.67;100.00
78485;BME280;67773;50.806;8.776;2024-02-23T05:15:55;97497.00;;;3.75;100.00
78485;BME280;67773;50.806;8.776;2024-02-23T05:18:21;97506.50;;;3.78;100.00
78485;BME280;67773;50.806;8.776;2024-02-23T05:20:46;97507.06;;;3.83;100.00
78485;BME280;67773;50.806;8.776;2024-02-23T05:23:11;97510.75;;;3.94;100.00
78485;BME280;67773;50.806;8.776;2024-02-23T05:25:37;97515.34;;;3.91;100.00
78485;BME280;67773;50.806;8.776;2024-02-23T05:28:02;97524.06;;;3.91;100.00
78485;BME280;67773;50.806;8.776;2024-02-23T05:30:28;97518.94;;;4.04;100.00
78485;BME280;67773;50.806;8.776;2024-02-23T05:32:56;97533.19;;;4.00;100.00
78485;BME280;67773;50.806;8.776;2024-02-23T05:35:22;97531.00;;;3.92;100.00
78485;BME280;67773;50.806;8.776;2024-02-23T05:37:47;97531.00;;;3.92;100.00
78485;BME280;67773;50.806;8.776;2024-02-23T05:40:15;97532.34;;;3.99;100.00
78485;BME280;67773;50.806;8.776;2024-02-23T05:42:40;97540.97;;;4.01;100.00
78485;BME280;67773;50.806;8.776;2024-02-23T05:45:09;97536.75;;;3.99;100.00
78485;BME280;67773;50.806;8.776;2024-02-23T05:47:40;97543.91;;;4.11;100.00
78485;BME280;67773;50.806;8.776;2024-02-23T05:50:08;97538.28;;;4.17;100.00
78485;BME280;67773;50.806;8.776;2024-02-23T05:52:34;97554.28;;;4.13;100.00
78485;BME280;67773;50.806;8.776;2024-02-23T05:55:00;97542.31;;;4.23;100.00
78485;BME280;67773;50.806;8.776;2024-02-23T05:57:26;97547.66;;;4.21;100.00
78485;BME280;67773;50.806;8.776;2024-02-23T05:59:52;97542.59;;;4.18;100.00
78485;BME280;67773;50.806;8.776;2024-02-23T06:02:18;97540.63;;;4.22;100.00
78485;BME280;67773;50.806;8.776;2024-02-23T06:04:43;97541.38;;;4.24;100.00
78485;BME280;67773;50.806;8.776;2024-02-23T06:07:08;97532.41;;;4.28;100.00
78485;BME280;67773;50.806;8.776;2024-02-23T06:09:34;97534.00;;;4.30;100.00
78485;BME280;67773;50.806;8.776;2024-02-23T06:11:59;97523.09;;;4.22;100.00
78485;BME280;67773;50.806;8.776;2024-02-23T06:14:25;97516.91;;;4.23;100.00
78485;BME280;67773;50.806;8.776;2024-02-23T06:16:50;97521.19;;;4.10;100.00
78485;BME280;67773;50.806;8.776;2024-02-23T06:19:16;97530.97;;;4.08;100.00
78485;BME280;67773;50.806;8.776;2024-02-23T06:21:41;97531.41;;;4.15;100.00
78485;BME280;67773;50.806;8.776;2024-02-23T06:24:07;97529.44;;;4.04;100.00
78485;BME280;67773;50.806;8.776;2024-02-23T06:26:35;97535.06;;;3.98;100.00
78485;BME280;67773;50.806;8.776;2024-02-23T06:29:00;97530.13;;;4.08;100.00
78485;BME280;67773;50.806;8.776;2024-02-23T06:31:26;97544.09;;;4.08;100.00
78485;BME280;67773;50.806;8.776;2024-02-23T06:33:51;97554.69;;;4.07;100.00
78485;BME280;67773;50.806;8.776;2024-02-23T06:36:17;97558.34;;;4.18;100.00
78485;BME280;67773;50.806;8.776;2024-02-23T06:38:44;97552.13;;;4.05;100.00
78485;BME280;67773;50.806;8.776;2024-02-23T06:41:11;97555.34;;;4.10;100.00
78485;BME280;67773;50.806;8.776;2024-02-23T06:43:36;97556.47;;;4.20;100.00
78485;BME280;67773;50.806;8.776;2024-02-23T06:46:09;97564.38;;;4.34;100.00
78485;BME280;67773;50.806;8.776;2024-02-23T06:48:35;97574.03;;;4.34;100.00
78485;BME280;67773;50.806;8.776;2024-02-23T06:51:02;97574.53;;;4.41;100.00
78485;BME280;67773;50.806;8.776;2024-02-23T06:53:28;97576.75;;;4.32;100.00
78485;BME280;67773;50.806;8.776;2024-02-23T06:55:53;97573.00;;;4.37;100.00
78485;BME280;67773;50.806;8.776;2024-02-23T06:58:19;97576.56;;;4.35;100.00
78485;BME280;67773;50.806;8.776;2024-02-23T07:00:44;97576.22;;;4.42;100.00
78485;BME280;67773;50.806;8.776;2024-02-23T07:03:09;97575.47;;;4.54;100.00
78485;BME280;67773;50.806;8.776;2024-02-23T07:05:35;97593.56;;;4.58;100.00
78485;BME280;67773;50.806;8.776;2024-02-23T07:08:01;97590.09;;;4.44;100.00
78485;BME280;67773;50.806;8.776;2024-02-23T07:10:27;97588.41;;;4.43;100.00
78485;BME280;67773;50.806;8.776;2024-02-23T07:12:53;97592.38;;;4.50;100.00
78485;BME280;67773;50.806;8.776;2024-02-23T07:15:19;97600.16;;;4.51;100.00
78485;BME280;67773;50.806;8.776;2024-02-23T07:17:45;97605.41;;;4.51;100.00
78485;BME280;67773;50.806;8.776;2024-02-23T07:20:11;97612.75;;;4.60;100.00
78485;BME280;67773;50.806;8.776;2024-02-23T07:22:36;97609.34;;;4.58;100.00
78485;BME280;67773;50.806;8.776;2024-02-23T07:25:02;97607.69;;;4.72;100.00
78485;BME280;67773;50.806;8.776;2024-02-23T07:27:29;97609.63;;;4.68;100.00
78485;BME280;67773;50.806;8.776;2024-02-23T07:29:55;97607.50;;;4.75;100.00
78485;BME280;67773;50.806;8.776;2024-02-23T07:32:20;97594.94;;;4.80;100.00
78485;BME280;67773;50.806;8.776;2024-02-23T07:34:46;97598.22;;;4.83;100.00
78485;BME280;67773;50.806;8.776;2024-02-23T07:37:11;97596.78;;;5.06;100.00
78485;BME280;67773;50.806;8.776;2024-02-23T07:39:37;97597.63;;;5.07;100.00
78485;BME280;67773;50.806;8.776;2024-02-23T07:42:03;97594.84;;;4.81;100.00
78485;BME280;67773;50.806;8.776;2024-02-23T07:44:28;97603.72;;;4.64;100.00
78485;BME280;67773;50.806;8.776;2024-02-23T07:46:54;97603.09;;;4.75;100.00
78485;BME280;67773;50.806;8.776;2024-02-23T07:49:21;97617.16;;;4.88;100.00
78485;BME280;67773;50.806;8.776;2024-02-23T07:51:47;97617.56;;;5.11;100.00
78485;BME280;67773;50.806;8.776;2024-02-23T07:54:13;97612.75;;;5.03;100.00
78485;BME280;67773;50.806;8.776;2024-02-23T07:56:38;97620.91;;;4.99;100.00
78485;BME280;67773;50.806;8.776;2024-02-23T07:59:03;97626.47;;;4.94;100.00
78485;BME280;67773;50.806;8.776;2024-02-23T08:01:29;97624.97;;;4.90;100.00
78485;BME280;67773;50.806;8.776;2024-02-23T08:03:54;97623.09;;;4.92;100.00
78485;BME280;67773;50.806;8.776;2024-02-23T08:06:19;97615.88;;;4.81;100.00
78485;BME280;67773;50.806;8.776;2024-02-23T08:08:45;97619.97;;;4.85;100.00
78485;BME280;67773;50.806;8.776;2024-02-23T08:11:11;97616.69;;;4.96;100.00
78485;BME280;67773;50.806;8.776;2024-02-23T08:13:36;97614.56;;;5.03;100.00
78485;BME280;67773;50.806;8.776;2024-02-23T08:16:01;97620.00;;;5.14;100.00
78485;BME280;67773;50.806;8.776;2024-02-23T08:18:27;97625.44;;;5.11;100.00
78485;BME280;67773;50.806;8.776;2024-02-23T08:20:52;97622.69;;;5.27;100.00
78485;BME280;67773;50.806;8.776;2024-02-23T08:23:18;97624.31;;;5.15;100.00
78485;BME280;67773;50.806;8.776;2024-02-23T08:25:48;97627.97;;;4.98;100.00
78485;BME280;67773;50.806;8.776;2024-02-23T08:28:13;97629.75;;;4.98;100.00
78485;BME280;67773;50.806;8.776;2024-02-23T08:30:38;97629.94;;;5.09;100.00
78485;BME280;67773;50.806;8.776;2024-02-23T08:33:04;97633.41;;;5.24;100.00
78485;BME280;67773;50.806;8.776;2024-02-23T08:35:30;97624.84;;;5.34;100.00
78485;BME280;67773;50.806;8.776;2024-02-23T08:37:56;97631.22;;;5.44;100.00
78485;BME280;67773;50.806;8.776;2024-02-23T08:40:21;97629.31;;;5.61;100.00
78485;BME280;67773;50.806;8.776;2024-02-23T08:42:47;97640.16;;;5.42;100.00
78485;BME280;67773;50.806;8.776;2024-02-23T08:45:12;97645.03;;;5.48;100.00
78485;BME280;67773;50.806;8.776;2024-02-23T08:47:38;97635.88;;;5.68;100.00
78485;BME280;67773;50.806;8.776;2024-02-23T08:50:05;97641.03;;;5.69;100.00
78485;BME280;67773;50.806;8.776;2024-02-23T08:52:30;97633.59;;;5.76;100.00
78485;BME280;67773;50.806;8.776;2024-02-23T08:54:56;97635.75;;;5.84;100.00
78485;BME280;67773;50.806;8.776;2024-02-23T08:57:21;97649.97;;;5.67;100.00
78485;BME280;67773;50.806;8.776;2024-02-23T08:59:48;97638.63;;;5.66;100.00
78485;BME280;67773;50.806;8.776;2024-02-23T09:02:13;97640.19;;;5.69;100.00
78485;BME280;67773;50.806;8.776;2024-02-23T09:04:39;97646.94;;;5.87;100.00
78485;BME280;67773;50.806;8.776;2024-02-23T09:07:05;97644.50;;;5.84;100.00
78485;BME280;67773;50.806;8.776;2024-02-23T09:09:30;97626.91;;;5.85;100.00
78485;BME280;67773;50.806;8.776;2024-02-23T09:11:55;97640.72;;;5.88;100.00
78485;BME280;67773;50.806;8.776;2024-02-23T09:14:21;97627.56;;;5.88;100.00
78485;BME280;67773;50.806;8.776;2024-02-23T09:16:46;97635.56;;;6.14;100.00
78485;BME280;67773;50.806;8.776;2024-02-23T09:19:12;97642.72;;;6.12;100.00
78485;BME280;67773;50.806;8.776;2024-02-23T09:21:38;97635.41;;;6.29;100.00
78485;BME280;67773;50.806;8.776;2024-02-23T09:24:04;97636.50;;;6.52;100.00
78485;BME280;67773;50.806;8.776;2024-02-23T09:26:29;97637.31;;;6.27;100.00
78485;BME280;67773;50.806;8.776;2024-02-23T09:28:55;97640.25;;;6.35;100.00
78485;BME280;67773;50.806;8.776;2024-02-23T09:31:20;97635.69;;;6.25;100.00
78485;BME280;67773;50.806;8.776;2024-02-23T09:33:46;97640.34;;;6.34;100.00
78485;BME280;67773;50.806;8.776;2024-02-23T09:36:12;97649.22;;;6.33;100.00
78485;BME280;67773;50.806;8.776;2024-02-23T09:38:37;97641.03;;;6.50;100.00
78485;BME280;67773;50.806;8.776;2024-02-23T09:41:03;97649.94;;;6.87;100.00
78485;BME280;67773;50.806;8.776;2024-02-23T09:43:29;97660.13;;;6.54;100.00
78485;BME280;67773;50.806;8.776;2024-02-23T09:45:57;97653.19;;;6.65;100.00
78485;BME280;67773;50.806;8.776;2024-02-23T09:48:23;97639.34;;;6.49;100.00
78485;BME280;67773;50.806;8.776;2024-02-23T09:50:50;97630.91;;;6.44;100.00
78485;BME280;67773;50.806;8.776;2024-02-23T09:53:17;97633.41;;;6.46;100.00
78485;BME280;67773;50.806;8.776;2024-02-23T09:55:44;97631.97;;;7.18;100.00
78485;BME280;67773;50.806;8.776;2024-02-23T09:58:12;97633.38;;;6.98;100.00
78485;BME280;67773;50.806;8.776;2024-02-23T10:00:39;97628.09;;;7.11;100.00
78485;BME280;67773;50.806;8.776;2024-02-23T10:03:05;97619.88;;;6.90;99.22
78485;BME280;67773;50.806;8.776;2024-02-23T10:05:31;97639.03;;;7.43;99.51
78485;BME280;67773;50.806;8.776;2024-02-23T10:07:57;97624.94;;;7.92;96.73
78485;BME280;67773;50.806;8.776;2024-02-23T10:10:29;97622.50;;;8.60;87.82
78485;BME280;67773;50.806;8.776;2024-02-23T10:12:54;97629.38;;;8.74;84.01
78485;BME280;67773;50.806;8.776;2024-02-23T10:15:20;97634.94;;;8.93;84.23
78485;BME280;67773;50.806;8.776;2024-02-23T10:17:45;97616.44;;;9.61;82.11
78485;BME280;67773;50.806;8.776;2024-02-23T10:20:10;97616.69;;;9.02;81.26
78485;BME280;67773;50.806;8.776;2024-02-23T10:22:36;97630.31;;;8.62;81.95
78485;BME280;67773;50.806;8.776;2024-02-23T10:25:01;97615.25;;;9.42;79.06
78485;BME280;67773;50.806;8.776;2024-02-23T10:27:27;97616.19;;;9.75;75.67
78485;BME280;67773;50.806;8.776;2024-02-23T10:29:53;97616.44;;;10.26;74.92
78485;BME280;67773;50.806;8.776;2024-02-23T10:32:19;97620.66;;;11.12;70.06
78485;BME280;67773;50.806;8.776;2024-02-23T10:34:48;97630.47;;;10.38;70.15
78485;BME280;67773;50.806;8.776;2024-02-23T10:37:15;97624.75;;;10.10;71.19
78485;BME280;67773;50.806;8.776;2024-02-23T10:39:42;97662.19;;;9.74;71.91
78485;BME280;67773;50.806;8.776;2024-02-23T10:42:09;97634.00;;;9.84;74.33
78485;BME280;67773;50.806;8.776;2024-02-23T10:44:35;97646.50;;;9.04;75.98
78485;BME280;67773;50.806;8.776;2024-02-23T10:47:02;97657.91;;;8.47;79.04
78485;BME280;67773;50.806;8.776;2024-02-23T10:49:29;97635.25;;;8.07;83.38
78485;BME280;67773;50.806;8.776;2024-02-23T10:51:56;97625.16;;;7.89;87.00
78485;BME280;67773;50.806;8.776;2024-02-23T10:54:22;97638.78;;;8.19;86.10
78485;BME280;67773;50.806;8.776;2024-02-23T10:56:49;97644.63;;;7.88;88.97
78485;BME280;67773;50.806;8.776;2024-02-23T10:59:15;97648.75;;;7.79;84.33
78485;BME280;67773;50.806;8.776;2024-02-23T11:01:51;97639.28;;;8.00;81.57
78485;BME280;67773;50.806;8.776;2024-02-23T11:04:19;97653.78;;;7.58;82.66
78485;BME280;67773;50.806;8.776;2024-02-23T11:06:52;97642.78;;;7.64;84.10
78485;BME280;67773;50.806;8.776;2024-02-23T11:09:23;97653.94;;;7.80;80.70
78485;BME280;67773;50.806;8.776;2024-02-23T11:11:56;97637.34;;;7.78;80.28
78485;BME280;67773;50.806;8.776;2024-02-23T11:14:38;97643.22;;;7.95;81.49
78485;BME280;67773;50.806;8.776;2024-02-23T11:17:04;97651.19;;;7.82;81.83
78485;BME280;67773;50.806;8.776;2024-02-23T11:19:37;97631.97;;;7.80;77.40
78485;BME280;67773;50.806;8.776;2024-02-23T11:22:03;97640.81;;;7.55;79.87
78485;BME280;67773;50.806;8.776;2024-02-23T11:24:30;97631.34;;;7.76;79.66
78485;BME280;67773;50.806;8.776;2024-02-23T11:26:57;97635.22;;;7.47;80.24
78485;BME280;67773;50.806;8.776;2024-02-23T11:29:26;97637.09;;;7.58;80.65
78485;BME280;67773;50.806;8.776;2024-02-23T11:31:52;97628.78;;;7.38;83.24
78485;BME280;67773;50.806;8.776;2024-02-23T11:34:24;97634.34;;;7.59;82.55
78485;BME280;67773;50.806;8.776;2024-02-23T11:36:51;97630.00;;;7.58;82.68
78485;BME280;67773;50.806;8.776;2024-02-23T11:39:19;97623.44;;;7.76;85.21
78485;BME280;67773;50.806;8.776;2024-02-23T11:41:44;97633.91;;;9.07;77.86
78485;BME280;67773;50.806;8.776;2024-02-23T11:44:10;97619.09;;;10.15;74.25
78485;BME280;67773;50.806;8.776;2024-02-23T11:46:35;97608.38;;;10.69;65.75
78485;BME280;67773;50.806;8.776;2024-02-23T11:49:00;97636.09;;;10.97;64.54
78485;BME280;67773;50.806;8.776;2024-02-23T11:51:26;97635.22;;;9.58;67.85
78485;BME280;67773;50.806;8.776;2024-02-23T11:53:55;97630.63;;;9.04;74.02
78485;BME280;67773;50.806;8.776;2024-02-23T11:56:22;97648.25;;;8.70;73.47
78485;BME280;67773;50.806;8.776;2024-02-23T11:58:48;97647.53;;;8.20;76.02
78485;BME280;67773;50.806;8.776;2024-02-23T12:01:14;97650.25;;;7.70;78.13
78485;BME280;67773;50.806;8.776;2024-02-23T12:03:39;97649.38;;;7.46;81.57
78485;BME280;67773;50.806;8.776;2024-02-23T12:06:06;97652.91;;;7.70;80.64
78485;BME280;67773;50.806;8.776;2024-02-23T12:08:32;97642.16;;;7.61;80.06
78485;BME280;67773;50.806;8.776;2024-02-23T12:11:03;97651.03;;;7.60;82.30
78485;BME280;67773;50.806;8.776;2024-02-23T12:13:29;97650.50;;;7.67;82.51
78485;BME280;67773;50.806;8.776;2024-02-23T12:15:54;97658.97;;;7.47;83.90
78485;BME280;67773;50.806;8.776;2024-02-23T12:18:24;97657.81;;;7.51;86.29
78485;BME280;67773;50.806;8.776;2024-02-23T12:20:51;97643.03;;;7.61;85.87
78485;BME280;67773;50.806;8.776;2024-02-23T12:23:17;97647.38;;;7.86;85.08
78485;BME280;67773;50.806;8.776;2024-02-23T12:26:01;97651.19;;;7.82;84.76
78485;BME280;67773;50.806;8.776;2024-02-23T12:28:26;97651.81;;;7.86;83.77
78485;BME280;67773;50.806;8.776;2024-02-23T12:31:05;97638.59;;;8.09;82.53
78485;BME280;67773;50.806;8.776;2024-02-23T12:33:34;97660.53;;;7.62;83.03
78485;BME280;67773;50.806;8.776;2024-02-23T12:36:01;97644.91;;;7.59;84.54
78485;BME280;67773;50.806;8.776;2024-02-23T12:38:27;97653.44;;;7.75;84.51
78485;BME280;67773;50.806;8.776;2024-02-23T12:40:52;97634.50;;;7.81;85.17
78485;BME280;67773;50.806;8.776;2024-02-23T12:43:18;97654.50;;;8.21;83.25
78485;BME280;67773;50.806;8.776;2024-02-23T12:45:47;97643.34;;;8.17;84.54
78485;BME280;67773;50.806;8.776;2024-02-23T12:48:15;97640.13;;;8.01;84.75
78485;BME280;67773;50.806;8.776;2024-02-23T12:50:40;97649.59;;;8.40;84.75
78485;BME280;67773;50.806;8.776;2024-02-23T12:53:06;97641.81;;;8.50;83.82
78485;BME280;67773;50.806;8.776;2024-02-23T12:55:32;97651.47;;;8.62;84.69